Time;durP1;ratioP1;P1;durP2;ratioP2;P2;SDS_P1;SDS_P2;PMS_P1;PMS_P2;Temp;Humidity;BMP_temperature;BMP_pressure;BME280_temperature;BME280_humidity;BME280_pressure;Samples;Min_cycle;Max_cycle;Signal;HPM_P1;HPM_P2
2021/07/13 00:00:00;;;;;;;1.80;1.10;;;16.70;72.20;;;;;;5008335;28;20461;-83
2021/07/13 00:02:26;;;;;;;2.60;1.08;;;16.70;72.50;;;;;;5008463;28;20076;-83
2021/07/13 00:04:51;;;;;;;1.48;1.00;;;16.70;72.40;;;;;;5008226;28;20030;-82
2021/07/13 00:07:17;;;;;;;5.05;1.38;;;16.80;72.20;;;;;;5010122;28;20088;-82
2021/07/13 00:09:46;;;;;;;1.70;0.90;;;16.70;71.80;;;;;;5011311;28;20076;-82
2021/07/13 00:12:11;;;;;;;1.88;1.00;;;16.70;71.70;;;;;;5009152;28;20517;-82
2021/07/13 00:14:37;;;;;;;1.42;1.10;;;16.70;71.60;;;;;;5010566;28;20018;-81
2021/07/13 00:17:06;;;;;;;3.70;1.05;;;16.70;71.90;;;;;;5009156;28;20057;-83
2021/07/13 00:19:33;;;;;;;1.77;0.90;;;16.80;72.00;;;;;;5006420;28;20057;-81
2021/07/13 00:21:59;;;;;;;1.58;1.00;;;16.70;71.90;;;;;;5010863;28;20092;-82
2021/07/13 00:24:25;;;;;;;3.08;1.10;;;16.80;72.10;;;;;;5011219;28;20486;-81
2021/07/13 00:26:50;;;;;;;2.45;0.90;;;16.80;72.00;;;;;;5011608;28;20029;-81
2021/07/13 00:29:16;;;;;;;2.45;1.48;;;16.80;71.80;;;;;;5010225;28;20061;-80
2021/07/13 00:31:42;;;;;;;1.88;1.00;;;16.70;72.20;;;;;;5009554;28;20030;-81
2021/07/13 00:34:07;;;;;;;2.67;1.10;;;16.70;71.90;;;;;;5008408;28;20537;-81
2021/07/13 00:36:33;;;;;;;1.75;0.95;;;16.60;72.00;;;;;;5012138;28;20037;-81
2021/07/13 00:38:58;;;;;;;2.53;1.30;;;16.70;72.60;;;;;;5007332;28;20033;-82
2021/07/13 00:41:24;;;;;;;3.70;0.98;;;16.70;72.60;;;;;;5008321;28;20037;-82
2021/07/13 00:43:50;;;;;;;3.72;1.17;;;16.70;72.70;;;;;;5008787;28;20045;-83
2021/07/13 00:46:15;;;;;;;2.72;1.33;;;16.80;72.10;;;;;;5010520;28;20510;-82
2021/07/13 00:48:41;;;;;;;2.38;1.20;;;16.80;71.80;;;;;;5010815;28;20490;-83
2021/07/13 00:51:09;;;;;;;4.30;1.15;;;16.80;71.90;;;;;;5009036;28;20084;-83
2021/07/13 00:53:35;;;;;;;2.03;1.10;;;16.80;71.80;;;;;;5009469;28;20032;-83
2021/07/13 00:56:01;;;;;;;2.30;1.23;;;16.80;72.40;;;;;;5008872;28;20052;-83
2021/07/13 00:58:26;;;;;;;2.65;1.50;;;16.80;73.40;;;;;;5009561;28;20033;-83
2021/07/13 01:00:52;;;;;;;2.58;1.10;;;16.70;72.10;;;;;;5011231;28;20022;-83
2021/07/13 01:03:18;;;;;;;4.93;1.13;;;16.70;72.90;;;;;;5011927;28;20033;-83
2021/07/13 01:05:46;;;;;;;2.90;1.20;;;16.60;72.50;;;;;;5008905;28;20030;-84
2021/07/13 01:08:44;;;;;;;1.80;1.30;;;16.70;72.60;;;;;;5007469;28;20026;-84
2021/07/13 01:11:24;;;;;;;1.77;1.13;;;16.70;72.30;;;;;;5008788;28;20064;-83
2021/07/13 01:14:00;;;;;;;3.53;1.27;;;16.60;72.30;;;;;;5008441;28;20068;-83
2021/07/13 01:16:38;;;;;;;1.60;1.10;;;16.60;72.40;;;;;;5008629;28;20045;-83
2021/07/13 01:19:12;;;;;;;2.60;1.30;;;16.60;72.60;;;;;;5009674;28;20038;-82
2021/07/13 01:21:47;;;;;;;1.88;1.13;;;16.60;72.70;;;;;;5008145;28;20037;-82
2021/07/13 01:24:36;;;;;;;2.40;1.10;;;16.60;72.70;;;;;;5010804;28;20576;-83
2021/07/13 01:27:41;;;;;;;1.85;1.00;;;16.60;73.00;;;;;;5007605;28;20472;-83
2021/07/13 01:30:15;;;;;;;2.10;1.20;;;16.60;72.40;;;;;;5010420;28;20057;-83
2021/07/13 01:32:44;;;;;;;2.58;1.10;;;16.60;72.50;;;;;;5009742;28;20555;-84
2021/07/13 01:35:15;;;;;;;2.53;1.17;;;16.50;73.20;;;;;;5007177;28;20033;-83
2021/07/13 01:37:44;;;;;;;1.65;1.30;;;16.50;73.00;;;;;;5008601;28;20127;-83
2021/07/13 01:40:11;;;;;;;2.15;0.98;;;16.50;73.90;;;;;;5008839;28;20058;-84
2021/07/13 01:42:40;;;;;;;1.50;1.10;;;16.50;73.40;;;;;;5006128;28;20533;-85
2021/07/13 01:45:08;;;;;;;1.35;1.00;;;16.40;73.20;;;;;;5009997;28;20048;-83
2021/07/13 01:47:38;;;;;;;2.45;1.23;;;16.40;73.40;;;;;;5008850;28;20112;-83
2021/07/13 01:50:09;;;;;;;2.55;1.20;;;16.40;73.70;;;;;;5008283;28;20064;-84
2021/07/13 01:52:37;;;;;;;1.48;1.13;;;16.40;73.50;;;;;;5011759;28;20041;-84
2021/07/13 01:55:07;;;;;;;1.85;1.05;;;16.30;73.80;;;;;;5012079;28;20038;-84
2021/07/13 01:57:34;;;;;;;2.30;1.08;;;16.30;74.00;;;;;;5014793;28;20152;-83
2021/07/13 02:00:04;;;;;;;4.20;1.30;;;16.40;74.30;;;;;;5010726;28;20454;-83
2021/07/13 02:02:31;;;;;;;1.98;1.15;;;16.40;73.90;;;;;;5014091;28;20026;-83
2021/07/13 02:05:00;;;;;;;1.65;1.10;;;16.40;73.80;;;;;;5013272;28;20025;-84
2021/07/13 02:07:26;;;;;;;2.45;1.20;;;16.40;74.20;;;;;;5011357;28;20049;-83
2021/07/13 02:09:52;;;;;;;2.38;1.20;;;16.40;73.80;;;;;;5012223;28;20026;-83
2021/07/13 02:12:18;;;;;;;2.40;1.30;;;16.40;74.00;;;;;;5014921;28;20025;-83
2021/07/13 02:14:44;;;;;;;2.45;1.10;;;16.40;74.30;;;;;;5011808;28;20022;-84
2021/07/13 02:17:10;;;;;;;3.35;1.10;;;16.30;74.80;;;;;;5010442;28;20049;-84
2021/07/13 02:19:36;;;;;;;3.10;1.30;;;16.30;74.30;;;;;;5011792;28;20402;-84
2021/07/13 02:22:02;;;;;;;2.42;1.27;;;16.30;74.70;;;;;;5012933;28;20092;-85
2021/07/13 02:24:28;;;;;;;2.08;1.05;;;16.30;74.70;;;;;;5013477;28;20025;-81
2021/07/13 02:27:06;;;;;;;3.42;1.30;;;16.30;76.00;;;;;;5013072;28;20029;-81
2021/07/13 02:29:55;;;;;;;2.53;1.40;;;16.30;75.00;;;;;;5009673;28;20042;-81
2021/07/13 02:32:27;;;;;;;2.83;1.25;;;16.30;75.40;;;;;;5010320;28;20053;-81
2021/07/13 02:34:56;;;;;;;3.08;1.30;;;16.30;75.20;;;;;;5010160;28;20506;-81
2021/07/13 02:37:23;;;;;;;2.30;1.50;;;16.30;75.50;;;;;;5011495;28;20038;-82
2021/07/13 02:39:50;;;;;;;2.72;1.30;;;16.30;75.50;;;;;;5013289;28;20411;-82
2021/07/13 02:42:17;;;;;;;3.15;1.50;;;16.30;75.50;;;;;;5012384;28;20025;-81
2021/07/13 02:44:43;;;;;;;3.15;1.25;;;16.30;75.40;;;;;;5011302;28;20426;-84
2021/07/13 02:47:11;;;;;;;2.78;1.35;;;16.30;75.30;;;;;;5012601;28;20486;-83
2021/07/13 02:49:45;;;;;;;2.58;1.60;;;16.30;76.20;;;;;;5011366;28;20041;-84
2021/07/13 02:52:31;;;;;;;2.42;1.30;;;16.30;76.00;;;;;;4997628;28;20022;-83
2021/07/13 02:55:08;;;;;;;2.85;1.80;;;16.30;75.60;;;;;;5010935;28;20037;-82
2021/07/13 02:57:34;;;;;;;2.65;1.48;;;16.30;76.00;;;;;;5014064;28;20038;-81
2021/07/13 03:00:02;;;;;;;1.95;1.30;;;16.30;76.70;;;;;;5010846;28;20388;-81
2021/07/13 03:02:28;;;;;;;5.25;1.60;;;16.30;76.70;;;;;;5009812;28;20072;-81
2021/07/13 03:04:55;;;;;;;3.13;1.40;;;16.30;75.60;;;;;;5010888;28;20022;-80
2021/07/13 03:07:21;;;;;;;2.55;1.55;;;16.30;76.60;;;;;;5010897;28;20429;-81
2021/07/13 03:09:49;;;;;;;1.98;1.40;;;16.30;76.70;;;;;;5011588;28;20029;-80
2021/07/13 03:12:15;;;;;;;2.33;1.55;;;16.30;76.80;;;;;;5013199;28;20022;-81
2021/07/13 03:14:44;;;;;;;2.33;1.60;;;16.20;76.40;;;;;;5010739;28;20568;-80
2021/07/13 03:17:13;;;;;;;2.80;1.70;;;16.20;77.20;;;;;;5010537;28;20041;-79
2021/07/13 03:19:39;;;;;;;2.17;1.52;;;16.20;76.80;;;;;;5009348;28;20022;-78
2021/07/13 03:22:13;;;;;;;2.65;1.77;;;16.30;77.20;;;;;;5011844;28;20529;-79
2021/07/13 03:24:40;;;;;;;2.38;1.85;;;16.20;77.20;;;;;;5009248;28;20026;-80
2021/07/13 03:27:08;;;;;;;3.38;1.88;;;16.20;76.80;;;;;;5012124;28;20037;-79
2021/07/13 03:29:34;;;;;;;2.78;1.67;;;16.20;77.20;;;;;;5011758;28;20046;-79
2021/07/13 03:32:01;;;;;;;2.60;1.80;;;16.20;77.70;;;;;;5010262;28;20030;-79
2021/07/13 03:34:28;;;;;;;3.88;1.98;;;16.20;77.00;;;;;;5009296;28;20033;-80
2021/07/13 03:36:54;;;;;;;2.80;2.05;;;16.10;77.30;;;;;;5012080;28;20487;-80
2021/07/13 03:39:20;;;;;;;5.82;2.10;;;16.10;77.20;;;;;;5011365;28;20028;-81
2021/07/13 03:41:48;;;;;;;3.67;1.80;;;16.10;77.30;;;;;;5010065;28;20033;-82
2021/07/13 03:44:14;;;;;;;5.60;2.22;;;16.10;77.80;;;;;;5008816;28;20113;-82
2021/07/13 03:46:40;;;;;;;3.05;2.10;;;16.10;78.10;;;;;;5008885;28;20109;-82
2021/07/13 03:49:08;;;;;;;4.38;2.05;;;16.10;78.20;;;;;;5010915;28;20399;-82
2021/07/13 03:52:00;;;;;;;2.92;1.98;;;16.10;78.30;;;;;;5012865;28;20030;-82
2021/07/13 03:54:25;;;;;;;4.90;2.30;;;16.10;78.30;;;;;;5008813;28;20030;-82
2021/07/13 03:56:51;;;;;;;3.42;2.13;;;16.10;79.10;;;;;;5008744;28;20037;-81
2021/07/13 03:59:17;;;;;;;3.90;2.00;;;16.10;78.60;;;;;;5010007;28;20065;-82
2021/07/13 04:01:43;;;;;;;3.78;2.28;;;16.10;79.00;;;;;;5010133;28;20045;-83
2021/07/13 04:04:09;;;;;;;3.72;2.08;;;16.10;78.90;;;;;;4993804;28;20037;-82
2021/07/13 04:06:35;;;;;;;4.03;2.10;;;16.10;78.50;;;;;;5012430;28;20030;-82
2021/07/13 04:09:03;;;;;;;3.70;2.20;;;16.20;78.50;;;;;;5010879;28;20502;-83
2021/07/13 04:11:29;;;;;;;3.42;2.20;;;16.10;79.00;;;;;;5007827;28;20030;-82
2021/07/13 04:13:54;;;;;;;3.50;2.05;;;16.10;79.00;;;;;;5007620;28;20076;-82
2021/07/13 04:16:20;;;;;;;2.92;2.17;;;16.10;79.60;;;;;;5007998;28;20065;-82
2021/07/13 04:18:45;;;;;;;3.88;2.33;;;16.20;79.10;;;;;;5011630;28;20509;-82
2021/07/13 04:21:11;;;;;;;4.65;2.08;;;16.20;79.50;;;;;;5009341;28;20021;-82
2021/07/13 04:23:37;;;;;;;3.53;2.10;;;16.20;80.20;;;;;;5009431;28;20033;-82
2021/07/13 04:26:05;;;;;;;4.07;2.22;;;16.20;79.50;;;;;;5007457;28;20172;-83
2021/07/13 04:28:31;;;;;;;4.07;2.50;;;16.30;79.00;;;;;;5007530;28;20422;-83
2021/07/13 04:30:58;;;;;;;4.28;2.20;;;16.30;78.40;;;;;;5010711;28;20033;-83
2021/07/13 04:33:24;;;;;;;3.80;1.92;;;16.30;79.00;;;;;;5009805;28;20021;-84
2021/07/13 04:35:50;;;;;;;9.63;2.38;;;16.30;79.40;;;;;;5006958;28;20507;-83
2021/07/13 04:38:15;;;;;;;4.45;2.17;;;16.30;79.20;;;;;;5007480;28;20478;-83
2021/07/13 04:40:41;;;;;;;4.40;2.22;;;16.30;79.60;;;;;;5010015;28;20120;-83
2021/07/13 04:43:07;;;;;;;4.15;2.38;;;16.30;79.60;;;;;;5008967;28;20023;-83
2021/07/13 04:45:33;;;;;;;3.85;2.10;;;16.30;80.50;;;;;;5011982;28;20157;-82
2021/07/13 04:47:58;;;;;;;5.45;2.35;;;16.30;80.50;;;;;;5010130;28;20026;-81
2021/07/13 04:50:24;;;;;;;4.15;2.38;;;16.20;83.10;;;;;;5009705;28;20034;-83
2021/07/13 04:52:50;;;;;;;3.63;2.10;;;16.20;83.10;;;;;;5009882;28;20033;-83
2021/07/13 04:55:17;;;;;;;2.33;1.77;;;16.10;86.30;;;;;;5008569;28;20026;-82
2021/07/13 04:57:44;;;;;;;3.05;1.83;;;16.00;85.20;;;;;;5010273;28;20040;-81
2021/07/13 05:00:11;;;;;;;4.00;1.60;;;16.00;85.40;;;;;;5004459;28;20030;-80
2021/07/13 05:02:37;;;;;;;2.40;1.77;;;16.10;84.40;;;;;;5005716;28;20022;-81
2021/07/13 05:05:10;;;;;;;3.13;1.40;;;16.10;85.20;;;;;;5008047;28;20017;-80
2021/07/13 05:07:43;;;;;;;5.38;1.55;;;16.10;84.80;;;;;;5008740;28;20022;-81
2021/07/13 05:10:13;;;;;;;2.75;1.63;;;16.10;86.20;;;;;;5008832;28;20041;-80
2021/07/13 05:12:40;;;;;;;2.00;1.20;;;16.10;84.30;;;;;;5007603;28;20018;-82
2021/07/13 05:15:08;;;;;;;3.20;1.17;;;16.10;84.90;;;;;;5008105;28;20380;-79
2021/07/13 05:17:36;;;;;;;2.17;1.20;;;16.10;84.60;;;;;;5008513;28;20045;-80
2021/07/13 05:20:04;;;;;;;2.05;1.38;;;16.10;84.90;;;;;;5008214;28;20033;-80
2021/07/13 05:22:29;;;;;;;1.98;1.10;;;16.10;85.60;;;;;;5009630;28;20478;-80
2021/07/13 05:24:55;;;;;;;1.60;1.00;;;16.20;88.10;;;;;;5008281;28;20029;-80
2021/07/13 05:27:21;;;;;;;1.50;1.10;;;16.20;87.10;;;;;;5013346;28;20066;-79
2021/07/13 05:29:47;;;;;;;2.83;1.40;;;16.20;86.80;;;;;;5010601;28;20520;-80
2021/07/13 05:32:13;;;;;;;2.50;1.30;;;16.20;87.20;;;;;;5012126;28;20038;-81
2021/07/13 05:34:39;;;;;;;2.85;1.52;;;16.20;86.60;;;;;;5012005;28;20113;-81
2021/07/13 05:37:06;;;;;;;3.03;1.25;;;16.20;87.20;;;;;;5011836;28;20525;-80
2021/07/13 05:39:32;;;;;;;3.58;1.70;;;16.20;87.00;;;;;;5013934;28;20500;-80
2021/07/13 05:41:57;;;;;;;4.10;1.70;;;16.20;87.80;;;;;;5011936;28;20121;-80
2021/07/13 05:44:23;;;;;;;2.47;1.50;;;16.20;86.60;;;;;;5006235;28;20029;-80
2021/07/13 05:46:49;;;;;;;2.83;1.40;;;16.30;86.40;;;;;;5006268;28;20037;-82
2021/07/13 05:49:15;;;;;;;2.47;1.30;;;16.30;85.80;;;;;;5012393;28;20402;-80
2021/07/13 05:51:41;;;;;;;4.38;1.63;;;16.30;86.60;;;;;;5014740;28;20112;-80
2021/07/13 05:54:07;;;;;;;3.47;1.50;;;16.30;85.00;;;;;;5012926;28;20520;-81
2021/07/13 05:56:32;;;;;;;7.18;1.80;;;16.40;86.80;;;;;;5012401;28;20034;-82
2021/07/13 05:58:58;;;;;;;4.90;1.65;;;16.40;85.80;;;;;;5012228;28;20028;-83
2021/07/13 06:01:24;;;;;;;4.93;1.88;;;16.50;86.30;;;;;;5006527;28;20157;-81
2021/07/13 06:03:49;;;;;;;3.95;1.73;;;16.40;85.40;;;;;;5013325;28;20148;-81
2021/07/13 06:06:15;;;;;;;6.40;2.08;;;16.50;86.70;;;;;;5013373;28;20054;-81
2021/07/13 06:08:41;;;;;;;3.00;1.80;;;16.40;86.20;;;;;;5012081;28;20026;-82
2021/07/13 06:11:06;;;;;;;3.53;1.90;;;16.40;85.80;;;;;;5012068;28;20030;-82
2021/07/13 06:13:32;;;;;;;5.28;2.00;;;16.40;85.60;;;;;;5011932;28;20387;-82
2021/07/13 06:15:58;;;;;;;5.15;1.90;;;16.40;86.30;;;;;;5011878;28;20030;-82
2021/07/13 06:18:24;;;;;;;6.70;2.35;;;16.50;85.60;;;;;;5013636;28;20025;-81
2021/07/13 06:20:50;;;;;;;5.40;2.00;;;16.40;85.90;;;;;;5011998;28;20397;-83
2021/07/13 06:23:16;;;;;;;3.90;2.00;;;16.50;87.50;;;;;;5011626;28;20473;-82
2021/07/13 06:25:42;;;;;;;7.40;2.50;;;16.50;87.30;;;;;;5010042;28;20483;-82
2021/07/13 06:28:08;;;;;;;4.82;2.30;;;16.50;86.90;;;;;;4997313;28;20483;-80
2021/07/13 06:30:34;;;;;;;3.67;2.10;;;16.50;86.40;;;;;;5012098;28;20043;-86
2021/07/13 06:33:00;;;;;;;6.18;2.40;;;16.50;86.00;;;;;;5003062;28;20081;-85
2021/07/13 06:35:26;;;;;;;4.40;2.28;;;16.60;86.10;;;;;;4997028;28;20053;-86
2021/07/13 06:37:52;;;;;;;2.90;2.15;;;16.60;85.50;;;;;;4984843;28;20048;-87
2021/07/13 06:40:18;;;;;;;2.70;2.15;;;16.70;86.40;;;;;;4997509;28;20647;-86
2021/07/13 06:42:44;;;;;;;5.70;2.63;;;16.60;85.80;;;;;;4993064;28;20030;-81
2021/07/13 06:45:10;;;;;;;4.97;2.70;;;16.70;85.60;;;;;;5004180;28;20073;-87
2021/07/13 06:47:36;;;;;;;4.55;2.60;;;16.70;85.10;;;;;;5010173;28;20084;-87
2021/07/13 06:50:02;;;;;;;4.85;2.33;;;16.70;84.70;;;;;;5007699;28;20026;-86
2021/07/13 06:52:28;;;;;;;4.47;2.47;;;16.80;84.80;;;;;;5000851;28;20025;-91
2021/07/13 06:54:54;;;;;;;6.47;2.63;;;16.80;85.30;;;;;;5012671;28;20558;-87
2021/07/13 06:57:21;;;;;;;6.00;2.97;;;16.80;85.50;;;;;;5011380;28;20030;-87
2021/07/13 06:59:47;;;;;;;7.22;2.90;;;16.70;85.00;;;;;;5011105;28;20026;-87
2021/07/13 07:02:13;;;;;;;4.53;2.70;;;16.70;84.80;;;;;;5010331;28;20490;-87
2021/07/13 07:04:39;;;;;;;6.13;2.40;;;16.80;85.80;;;;;;5008862;28;20505;-89
2021/07/13 07:07:04;;;;;;;5.82;2.58;;;16.90;85.30;;;;;;5010594;28;20072;-87
2021/07/13 07:09:30;;;;;;;4.15;2.65;;;16.90;84.90;;;;;;5010454;28;20545;-78
2021/07/13 07:11:55;;;;;;;4.18;2.40;;;17.00;85.60;;;;;;5008580;28;20037;-79
2021/07/13 07:14:21;;;;;;;5.97;2.47;;;17.10;85.40;;;;;;5013876;28;20029;-74
2021/07/13 07:16:47;;;;;;;5.28;2.95;;;17.10;85.40;;;;;;5014709;28;20120;-75
2021/07/13 07:19:12;;;;;;;4.85;2.40;;;17.10;85.20;;;;;;5002466;28;20022;-76
2021/07/13 07:21:38;;;;;;;6.18;2.60;;;17.20;85.60;;;;;;5002277;28;20037;-75
2021/07/13 07:24:04;;;;;;;5.63;3.13;;;17.20;85.30;;;;;;5001565;28;20084;-77
2021/07/13 07:26:29;;;;;;;3.75;2.53;;;17.30;85.10;;;;;;5001125;28;20026;-74
2021/07/13 07:28:55;;;;;;;4.38;2.50;;;17.30;84.60;;;;;;5003025;28;20653;-74
2021/07/13 07:31:21;;;;;;;4.55;2.70;;;17.30;84.80;;;;;;5004849;28;20030;-74
2021/07/13 07:33:47;;;;;;;5.90;2.45;;;17.20;83.80;;;;;;4994425;28;20022;-75
2021/07/13 07:36:13;;;;;;;6.40;2.50;;;17.20;85.10;;;;;;5000663;28;20023;-74
2021/07/13 07:38:40;;;;;;;3.60;2.05;;;17.20;84.50;;;;;;4997044;28;20407;-75
2021/07/13 07:41:06;;;;;;;3.42;2.15;;;17.20;84.80;;;;;;4996776;28;20036;-77
2021/07/13 07:43:31;;;;;;;3.63;2.00;;;17.30;84.70;;;;;;4995128;28;20034;-75
2021/07/13 07:45:57;;;;;;;3.97;2.30;;;17.30;84.10;;;;;;4993857;28;20061;-75
2021/07/13 07:48:23;;;;;;;5.50;2.55;;;17.40;84.10;;;;;;5006152;28;20017;-76
2021/07/13 07:50:48;;;;;;;3.80;2.20;;;17.30;84.10;;;;;;4997557;28;20026;-74
2021/07/13 07:53:14;;;;;;;4.10;2.08;;;17.30;83.60;;;;;;4997018;28;20034;-74
2021/07/13 07:55:39;;;;;;;4.65;2.38;;;17.20;84.10;;;;;;4994918;28;20059;-74
2021/07/13 07:58:05;;;;;;;3.30;1.90;;;17.30;83.90;;;;;;5003098;28;20038;-74
2021/07/13 08:00:31;;;;;;;3.05;2.10;;;17.40;84.00;;;;;;4995035;28;20036;-76
2021/07/13 08:02:56;;;;;;;3.50;1.90;;;17.40;83.80;;;;;;4997165;28;20031;-76
2021/07/13 08:05:24;;;;;;;4.60;2.10;;;17.50;83.60;;;;;;4996840;28;20034;-75
2021/07/13 08:07:50;;;;;;;2.97;1.92;;;17.70;83.60;;;;;;4995222;28;20026;-75
2021/07/13 08:10:16;;;;;;;6.72;2.60;;;17.80;82.80;;;;;;4995122;28;20033;-75
2021/07/13 08:12:42;;;;;;;2.92;1.85;;;17.80;81.60;;;;;;4992921;28;20030;-75
2021/07/13 08:15:09;;;;;;;6.00;2.10;;;17.80;82.20;;;;;;4996496;28;20562;-75
2021/07/13 08:17:35;;;;;;;4.95;2.28;;;17.90;82.50;;;;;;4995576;28;20391;-74
2021/07/13 08:20:01;;;;;;;3.95;2.05;;;18.00;82.00;;;;;;4996943;28;20038;-75
2021/07/13 08:22:29;;;;;;;3.63;2.08;;;18.10;82.00;;;;;;5003403;28;20022;-75
2021/07/13 08:24:54;;;;;;;3.90;2.08;;;18.30;81.60;;;;;;4994765;28;20118;-75
2021/07/13 08:27:20;;;;;;;3.47;1.95;;;18.30;79.90;;;;;;5000552;28;20481;-74
2021/07/13 08:29:47;;;;;;;2.50;1.98;;;18.30;79.90;;;;;;5005338;28;20057;-75
2021/07/13 08:32:13;;;;;;;2.70;1.73;;;18.30;79.60;;;;;;5003344;28;20109;-74
2021/07/13 08:34:38;;;;;;;2.47;1.67;;;18.20;78.90;;;;;;4995198;28;20105;-75
2021/07/13 08:37:05;;;;;;;2.95;1.80;;;18.10;79.20;;;;;;4997604;28;20499;-77
2021/07/13 08:39:31;;;;;;;4.85;1.85;;;18.00;78.80;;;;;;4995294;28;20018;-75
2021/07/13 08:41:58;;;;;;;4.25;2.15;;;18.00;79.20;;;;;;4996551;28;20072;-76
2021/07/13 08:44:24;;;;;;;2.85;1.63;;;18.10;78.70;;;;;;4998577;28;20398;-75
2021/07/13 08:46:49;;;;;;;2.90;1.80;;;18.10;79.10;;;;;;4994031;28;20487;-76
2021/07/13 08:49:18;;;;;;;3.15;1.70;;;18.40;79.80;;;;;;4995703;28;20026;-75
2021/07/13 08:51:43;;;;;;;3.25;1.75;;;18.60;78.60;;;;;;4996254;28;20026;-75
2021/07/13 08:54:10;;;;;;;3.65;1.88;;;18.60;77.20;;;;;;4994693;28;20026;-76
2021/07/13 08:56:36;;;;;;;4.28;1.90;;;18.50;77.40;;;;;;4996610;28;20506;-75
2021/07/13 08:59:04;;;;;;;3.53;1.63;;;18.50;78.20;;;;;;4996939;28;20030;-76
2021/07/13 09:01:30;;;;;;;5.63;1.85;;;18.70;77.60;;;;;;4999835;28;20030;-75
2021/07/13 09:03:58;;;;;;;2.70;1.95;;;18.70;77.70;;;;;;4994018;28;20390;-75
2021/07/13 09:06:25;;;;;;;2.63;2.05;;;18.70;78.60;;;;;;4996429;28;20053;-75
2021/07/13 09:08:51;;;;;;;4.18;1.80;;;18.60;77.20;;;;;;4996184;28;20041;-75
2021/07/13 09:11:20;;;;;;;2.42;1.90;;;18.60;78.00;;;;;;4996097;28;20022;-74
2021/07/13 09:13:52;;;;;;;3.10;2.20;;;18.60;77.80;;;;;;5004859;28;20027;-75
2021/07/13 09:16:21;;;;;;;4.53;2.27;;;18.60;77.60;;;;;;4995064;28;20049;-74
2021/07/13 09:18:51;;;;;;;5.18;2.50;;;18.50;77.40;;;;;;4993616;28;20082;-74
2021/07/13 09:21:21;;;;;;;3.63;2.33;;;18.40;77.60;;;;;;4998092;28;20080;-75
2021/07/13 09:24:05;;;;;;;4.40;2.55;;;18.50;77.40;;;;;;4998687;28;20027;-75
2021/07/13 09:26:37;;;;;;;3.60;2.50;;;18.50;77.40;;;;;;4997584;28;20023;-76
2021/07/13 09:29:03;;;;;;;3.65;2.28;;;18.60;77.40;;;;;;4995921;28;20046;-75
2021/07/13 09:31:29;;;;;;;4.50;2.80;;;18.70;75.90;;;;;;5007714;28;20080;-75
2021/07/13 09:33:54;;;;;;;3.95;2.88;;;18.80;76.70;;;;;;4992074;28;20126;-75
2021/07/13 09:36:20;;;;;;;4.57;2.90;;;19.00;76.20;;;;;;4995667;28;20030;-75
2021/07/13 09:38:45;;;;;;;3.40;2.78;;;19.10;76.00;;;;;;4995050;28;20049;-75
2021/07/13 09:41:17;;;;;;;5.35;3.20;;;19.30;74.90;;;;;;4995510;28;20030;-75
2021/07/13 09:43:59;;;;;;;5.40;3.42;;;19.30;74.40;;;;;;4992916;28;20026;-75
2021/07/13 09:46:32;;;;;;;4.07;3.20;;;19.30;74.40;;;;;;5005279;28;20018;-75
2021/07/13 09:49:06;;;;;;;;;;;19.30;74.80;;;;;;4993382;28;20113;-75
2021/07/13 09:51:32;;;;;;;6.10;3.70;;;19.30;74.30;;;;;;4993474;28;19906;-75
2021/07/13 09:53:58;;;;;;;4.68;3.30;;;19.40;74.10;;;;;;4994231;28;20077;-75
2021/07/13 09:56:42;;;;;;;5.05;3.25;;;19.30;75.40;;;;;;5000660;28;20035;-75
2021/07/13 09:59:08;;;;;;;5.18;3.97;;;19.30;74.80;;;;;;5001112;28;20490;-75
2021/07/13 10:01:34;;;;;;;4.78;3.58;;;19.20;74.90;;;;;;5002066;28;20030;-75
2021/07/13 10:04:01;;;;;;;6.72;3.88;;;19.20;76.40;;;;;;4993050;28;20034;-75
2021/07/13 10:06:31;;;;;;;6.38;3.95;;;19.30;75.40;;;;;;4998090;28;20010;-76
2021/07/13 10:09:00;;;;;;;5.15;4.07;;;19.30;75.30;;;;;;4994655;28;20034;-75
2021/07/13 10:11:29;;;;;;;6.55;4.07;;;19.30;74.40;;;;;;4998782;28;20488;-75
2021/07/13 10:13:58;;;;;;;4.68;3.60;;;19.40;74.70;;;;;;4999136;28;20053;-75
2021/07/13 10:16:24;;;;;;;5.75;3.45;;;19.40;75.20;;;;;;4997430;28;20038;-75
2021/07/13 10:18:50;;;;;;;4.75;3.70;;;19.60;74.60;;;;;;5005910;28;20018;-76
2021/07/13 10:21:18;;;;;;;5.18;3.75;;;19.60;75.20;;;;;;5010205;28;20032;-76
2021/07/13 10:23:45;;;;;;;5.72;3.42;;;19.70;73.70;;;;;;5014697;28;20022;-77
2021/07/13 10:26:11;;;;;;;4.65;3.72;;;19.70;73.70;;;;;;5006686;28;20030;-79
2021/07/13 10:28:38;;;;;;;4.93;3.50;;;19.80;73.80;;;;;;5000834;28;20034;-79
2021/07/13 10:31:04;;;;;;;6.55;3.60;;;19.90;73.20;;;;;;5011911;28;20034;-78
2021/07/13 10:33:38;;;;;;;4.65;2.92;;;19.80;73.50;;;;;;5012097;28;20025;-78
2021/07/13 10:36:28;;;;;;;6.00;3.25;;;20.10;72.10;;;;;;5011169;28;20029;-78
2021/07/13 10:39:42;;;;;;;3.47;2.95;;;20.30;72.50;;;;;;5011016;28;20081;-79
2021/07/13 10:42:39;;;;;;;3.65;2.80;;;20.40;71.70;;;;;;4993255;28;20034;-79
2021/07/13 10:45:17;;;;;;;3.25;2.95;;;20.50;70.90;;;;;;5005106;28;20065;-79
2021/07/13 10:48:13;;;;;;;3.90;2.80;;;20.40;71.00;;;;;;5008636;28;20546;-79
2021/07/13 10:50:40;;;;;;;3.80;2.72;;;20.60;72.10;;;;;;5000933;28;20530;-80
2021/07/13 10:53:29;;;;;;;4.03;3.40;;;20.70;70.90;;;;;;4999421;28;20034;-77
2021/07/13 10:56:07;;;;;;;4.20;3.22;;;20.20;70.80;;;;;;5006753;28;20034;-79
2021/07/13 10:58:45;;;;;;;4.50;3.40;;;20.20;72.50;;;;;;4997885;28;20034;-79
2021/07/13 11:01:33;;;;;;;3.47;2.95;;;20.10;71.90;;;;;;5009706;28;20026;-79
2021/07/13 11:04:04;;;;;;;3.95;3.08;;;20.20;73.10;;;;;;5011350;28;20096;-79
2021/07/13 11:06:53;;;;;;;4.10;3.30;;;20.40;72.60;;;;;;5012609;28;20394;-79
2021/07/13 11:09:27;;;;;;;5.07;2.90;;;20.40;72.10;;;;;;5004625;28;20128;-75
2021/07/13 11:12:08;;;;;;;4.28;3.15;;;20.30;71.90;;;;;;4998025;28;20026;-74
2021/07/13 11:14:46;;;;;;;3.97;2.65;;;20.20;72.00;;;;;;5009040;28;20026;-79
2021/07/13 11:17:18;;;;;;;3.15;2.58;;;20.40;71.50;;;;;;5003844;28;20418;-75
2021/07/13 11:19:43;;;;;;;2.85;2.33;;;20.40;71.90;;;;;;5006382;28;20103;-75
2021/07/13 11:22:16;;;;;;;4.15;2.55;;;20.50;71.40;;;;;;5000294;28;20165;-76
2021/07/13 11:24:42;;;;;;;;;;;20.70;70.50;;;;;;4996164;28;20558;-75
2021/07/13 11:27:08;;;;;;;2.95;2.55;;;20.70;69.60;;;;;;4995697;28;20004;-75
2021/07/13 11:29:34;;;;;;;3.58;1.95;;;20.80;70.50;;;;;;4996648;28;20050;-76
2021/07/13 11:32:05;;;;;;;4.95;2.30;;;21.00;70.80;;;;;;5003322;28;20026;-76
2021/07/13 11:34:36;;;;;;;5.82;2.60;;;21.10;70.00;;;;;;5001603;28;20022;-76
2021/07/13 11:37:03;;;;;;;3.10;2.47;;;21.00;69.10;;;;;;4995469;28;20032;-74
2021/07/13 11:39:32;;;;;;;3.72;2.45;;;21.10;69.50;;;;;;4996971;28;20129;-75
2021/07/13 11:42:06;;;;;;;4.07;2.30;;;21.00;69.90;;;;;;4996794;28;20169;-75
2021/07/13 11:44:34;;;;;;;4.05;2.53;;;21.20;69.30;;;;;;5001242;28;20045;-75
2021/07/13 11:47:00;;;;;;;5.03;2.50;;;21.20;68.50;;;;;;4997644;28;20410;-75
2021/07/13 11:49:27;;;;;;;3.05;2.38;;;20.90;68.40;;;;;;4995409;28;20014;-75
2021/07/13 11:51:57;;;;;;;3.15;2.30;;;20.90;69.90;;;;;;4992950;28;20030;-75
2021/07/13 11:54:28;;;;;;;2.60;1.88;;;21.20;68.90;;;;;;4997138;28;20594;-75
2021/07/13 11:56:56;;;;;;;3.30;2.47;;;21.40;69.60;;;;;;4999589;28;20045;-75
2021/07/13 11:59:24;;;;;;;3.42;2.33;;;21.30;68.70;;;;;;4996506;28;20034;-75
2021/07/13 12:01:54;;;;;;;3.35;2.47;;;21.40;68.90;;;;;;4997706;28;20026;-76
2021/07/13 12:04:22;;;;;;;3.28;2.53;;;21.40;67.90;;;;;;5005314;28;20088;-77
2021/07/13 12:06:53;;;;;;;3.35;2.40;;;21.60;67.40;;;;;;4995010;28;20030;-76
2021/07/13 12:09:39;;;;;;;2.75;2.20;;;21.60;67.40;;;;;;4997353;28;20049;-74
2021/07/13 12:12:04;;;;;;;4.43;2.47;;;21.70;68.00;;;;;;4997599;28;20033;-75
2021/07/13 12:14:30;;;;;;;4.07;2.45;;;21.80;66.80;;;;;;4997554;28;20026;-75
2021/07/13 12:16:57;;;;;;;4.10;3.00;;;21.80;66.70;;;;;;4994420;28;20134;-75
2021/07/13 12:19:25;;;;;;;4.38;2.70;;;21.80;66.30;;;;;;4994852;28;20025;-77
2021/07/13 12:22:00;;;;;;;2.63;2.20;;;21.80;67.30;;;;;;5000318;28;20125;-75
2021/07/13 12:24:33;;;;;;;4.43;2.88;;;22.00;67.90;;;;;;5000543;28;20032;-75
2021/07/13 12:27:01;;;;;;;3.67;2.75;;;22.00;65.80;;;;;;5000643;28;20032;-75
2021/07/13 12:29:36;;;;;;;4.72;2.50;;;22.10;66.60;;;;;;5001401;28;20526;-76
2021/07/13 12:32:03;;;;;;;4.15;2.70;;;22.20;65.30;;;;;;5003069;28;20022;-75
2021/07/13 12:34:41;;;;;;;4.00;2.83;;;22.20;65.80;;;;;;5006231;28;20026;-75
2021/07/13 12:37:19;;;;;;;3.33;2.70;;;22.00;65.40;;;;;;5003778;28;20033;-75
2021/07/13 12:39:46;;;;;;;5.65;2.60;;;21.70;65.30;;;;;;5003658;28;20034;-75
2021/07/13 12:42:23;;;;;;;3.60;2.90;;;21.70;66.20;;;;;;4996068;28;20034;-75
2021/07/13 12:44:53;;;;;;;3.22;2.50;;;21.60;65.70;;;;;;4995151;28;20022;-76
2021/07/13 12:47:29;;;;;;;3.72;2.65;;;21.80;67.00;;;;;;5000117;28;20026;-76
2021/07/13 12:50:31;;;;;;;3.50;2.60;;;22.00;67.40;;;;;;4993121;28;20058;-75
2021/07/13 12:53:04;;;;;;;3.60;2.75;;;21.90;65.60;;;;;;4942955;29;20040;-76
2021/07/13 12:55:37;;;;;;;4.50;3.30;;;21.80;66.20;;;;;;4947321;29;20023;-75